Time;durP1;ratioP1;P1;durP2;ratioP2;P2;SDS_P1;SDS_P2;PMS_P1;PMS_P2;Temp;Humidity;BMP_temperature;BMP_pressure;BME280_temperature;BME280_humidity;BME280_pressure;Samples;Min_cycle;Max_cycle;Signal;HPM_P1;HPM_P2
2023/10/16 00:00:47;;;;;;;2.10;0.88;;;6.90;99.90;;;;;;5039352;27;89791;-33
2023/10/16 00:03:17;;;;;;;1.52;1.25;;;6.90;99.90;;;;;;5040623;27;87525;-34
2023/10/16 00:05:49;;;;;;;2.25;1.55;;;6.90;99.90;;;;;;5039698;27;88920;-34
2023/10/16 00:08:18;;;;;;;1.45;0.80;;;6.90;99.90;;;;;;5043247;27;91098;-32
2023/10/16 00:11:17;;;;;;;2.88;1.77;;;6.90;99.90;;;;;;5042498;27;89810;-33
2023/10/16 00:13:50;;;;;;;1.92;1.10;;;7.00;99.90;;;;;;5017276;27;87805;-33
2023/10/16 00:16:17;;;;;;;2.63;0.90;;;7.00;99.90;;;;;;5042732;27;89786;-34
2023/10/16 00:18:45;;;;;;;8.05;1.30;;;7.00;99.90;;;;;;5042351;27;88650;-33
2023/10/16 00:21:13;;;;;;;1.38;1.20;;;6.90;99.90;;;;;;5024035;27;89265;-34
2023/10/16 00:23:40;;;;;;;1.60;1.00;;;6.90;99.90;;;;;;5042775;27;89743;-32
2023/10/16 00:26:08;;;;;;;2.85;1.10;;;6.90;99.90;;;;;;5042956;27;88549;-34
2023/10/16 00:28:37;;;;;;;3.95;1.38;;;6.90;99.90;;;;;;5016983;28;90048;-34
2023/10/16 00:31:08;;;;;;;3.38;1.95;;;6.90;99.90;;;;;;5023427;27;89482;-33
2023/10/16 00:33:33;;;;;;;4.82;1.58;;;6.90;99.90;;;;;;5028259;27;88106;-34
2023/10/16 00:36:00;;;;;;;2.90;0.85;;;6.90;99.90;;;;;;5023351;27;90160;-32
2023/10/16 00:38:26;;;;;;;5.95;1.27;;;6.90;99.90;;;;;;5033041;27;89880;-34
2023/10/16 00:43:36;;;;;;;0.68;0.68;;;6.90;99.90;;;;;;5042383;27;89615;-33
2023/10/16 00:46:06;;;;;;;1.58;1.33;;;6.90;99.90;;;;;;5042860;27;89350;-34
2023/10/16 00:48:36;;;;;;;1.38;1.02;;;6.90;99.90;;;;;;5043074;27;89120;-35
2023/10/16 00:51:24;;;;;;;1.80;1.50;;;6.90;99.90;;;;;;5036514;27;89898;-32
2023/10/16 00:53:49;;;;;;;2.10;1.52;;;6.90;99.90;;;;;;5035302;27;88941;-34
2023/10/16 00:56:15;;;;;;;1.98;1.13;;;7.00;99.90;;;;;;5032036;27;90007;-34
2023/10/16 00:58:47;;;;;;;3.30;0.95;;;7.00;99.90;;;;;;5026656;27;88870;-35
2023/10/16 01:01:13;;;;;;;3.83;2.15;;;7.00;99.90;;;;;;5023094;27;88836;-33
2023/10/16 01:03:44;;;;;;;1.27;0.90;;;7.10;99.90;;;;;;5021746;27;88006;-33
2023/10/16 01:06:17;;;;;;;6.88;3.08;;;7.10;99.90;;;;;;5023104;27;90123;-33
2023/10/16 01:08:49;;;;;;;2.60;1.10;;;7.10;99.90;;;;;;5017370;28;90227;-31
2023/10/16 01:11:18;;;;;;;2.08;1.08;;;7.10;99.90;;;;;;5033681;27;88901;-32
2023/10/16 01:13:47;;;;;;;2.45;1.10;;;7.10;99.90;;;;;;5028840;27;89019;-35
2023/10/16 01:16:13;;;;;;;;;;;7.10;99.90;;;;;;5031701;27;88366;-32
2023/10/16 01:18:40;;;;;;;4.70;1.02;;;7.20;99.90;;;;;;5023359;27;89869;-34
2023/10/16 01:21:05;;;;;;;2.38;1.45;;;7.20;99.90;;;;;;5023226;27;89707;-34
2023/10/16 01:23:34;;;;;;;1.23;0.80;;;7.20;99.90;;;;;;5027841;27;88204;-31
2023/10/16 01:26:01;;;;;;;21.13;1.98;;;7.20;99.90;;;;;;5030779;27;88471;-35
2023/10/16 01:28:27;;;;;;;1.83;0.88;;;7.20;99.90;;;;;;5034280;27;88836;-35
2023/10/16 01:30:53;;;;;;;1.67;1.25;;;7.20;99.90;;;;;;5021793;27;90647;-31
2023/10/16 01:33:20;;;;;;;1.70;1.55;;;7.20;99.90;;;;;;5027578;27;89693;-33
2023/10/16 01:35:46;;;;;;;7.32;1.45;;;7.20;99.90;;;;;;5042170;27;88441;-31
2023/10/16 01:38:16;;;;;;;1.88;1.45;;;7.20;99.90;;;;;;5041643;27;90203;-32
2023/10/16 01:43:36;;;;;;;4.10;1.10;;;7.20;99.90;;;;;;5042112;27;89132;-35
2023/10/16 01:46:13;;;;;;;0.80;0.80;;;7.20;99.90;;;;;;5023669;27;88256;-32
2023/10/16 01:48:49;;;;;;;2.58;1.05;;;7.20;99.90;;;;;;5021556;27;91400;-33
2023/10/16 01:51:19;;;;;;;2.58;1.80;;;7.20;99.90;;;;;;5029651;27;89904;-35
2023/10/16 01:53:47;;;;;;;4.10;1.50;;;7.20;99.90;;;;;;5038855;27;87886;-33
2023/10/16 01:56:13;;;;;;;1.20;0.60;;;7.20;99.90;;;;;;5031339;27;89357;-34
2023/10/16 01:58:46;;;;;;;4.05;1.13;;;7.20;99.90;;;;;;5025495;27;90162;-31
2023/10/16 02:01:17;;;;;;;7.30;2.58;;;7.20;99.90;;;;;;5032361;27;90203;-34
2023/10/16 02:03:45;;;;;;;1.88;0.75;;;7.20;99.90;;;;;;5040622;27;89536;-34
2023/10/16 02:06:15;;;;;;;1.80;1.17;;;7.20;99.90;;;;;;5041614;27;89460;-34
2023/10/16 02:08:43;;;;;;;0.70;0.70;;;7.20;99.90;;;;;;5039765;27;89641;-33
2023/10/16 02:11:10;;;;;;;7.63;1.73;;;7.20;99.90;;;;;;5040553;27;89420;-33
2023/10/16 02:13:36;;;;;;;1.73;1.10;;;7.20;99.90;;;;;;5024953;27;87979;-34
2023/10/16 02:16:06;;;;;;;1.60;1.05;;;7.30;99.90;;;;;;5023043;27;89276;-31
2023/10/16 02:18:40;;;;;;;3.80;1.70;;;7.30;99.90;;;;;;5022249;27;89842;-33
2023/10/16 02:21:08;;;;;;;3.95;0.85;;;7.30;99.90;;;;;;5022013;27;89357;-30
2023/10/16 02:23:34;;;;;;;2.00;1.48;;;7.30;99.90;;;;;;5022223;27;89864;-33
2023/10/16 02:26:05;;;;;;;2.70;1.00;;;7.30;99.90;;;;;;5021623;27;87659;-36
2023/10/16 02:28:32;;;;;;;3.92;0.80;;;7.30;99.90;;;;;;5033150;27;90477;-32
2023/10/16 02:31:18;;;;;;;2.28;1.38;;;7.40;99.90;;;;;;5033160;27;89858;-32
2023/10/16 02:33:46;;;;;;;3.25;2.08;;;7.40;99.90;;;;;;5020850;27;88161;-34
2023/10/16 02:36:15;;;;;;;4.28;2.28;;;7.40;99.90;;;;;;5021385;27;88348;-33
2023/10/16 02:38:44;;;;;;;3.03;1.63;;;7.40;99.90;;;;;;5021644;27;90524;-32
2023/10/16 02:41:10;;;;;;;1.50;1.40;;;7.40;99.90;;;;;;5025105;27;90263;-31
2023/10/16 02:43:41;;;;;;;10.20;1.35;;;7.40;99.90;;;;;;5040266;27;88083;-34
2023/10/16 02:46:11;;;;;;;1.15;1.05;;;7.40;99.90;;;;;;5039924;27;89723;-32
2023/10/16 02:48:43;;;;;;;2.03;1.00;;;7.40;99.90;;;;;;5026807;27;90711;-34
2023/10/16 02:51:09;;;;;;;1.35;1.17;;;7.30;99.90;;;;;;5028097;27;89720;-32
2023/10/16 02:53:42;;;;;;;5.45;1.10;;;7.40;99.90;;;;;;5039048;27;88382;-33
2023/10/16 02:56:08;;;;;;;4.63;1.33;;;7.30;99.90;;;;;;5041152;27;88211;-34
2023/10/16 02:59:09;;;;;;;5.53;2.13;;;7.30;99.90;;;;;;5038171;27;89924;-31
2023/10/16 03:01:27;;;;;;;2.22;1.60;;;7.30;99.90;;;;;;5036530;27;90368;-33
2023/10/16 03:03:53;;;;;;;1.73;1.33;;;7.30;99.90;;;;;;5024599;27;88165;-34
2023/10/16 03:06:19;;;;;;;2.78;1.20;;;7.20;99.90;;;;;;5039886;27;89025;-32
2023/10/16 03:08:51;;;;;;;6.63;2.85;;;7.30;99.90;;;;;;5038698;27;92199;-31
2023/10/16 03:11:18;;;;;;;8.88;1.50;;;7.30;99.90;;;;;;5019532;28;89851;-34
2023/10/16 03:13:47;;;;;;;5.03;1.90;;;7.30;99.90;;;;;;5020041;27;89917;-34
2023/10/16 03:16:16;;;;;;;2.03;1.50;;;7.30;99.90;;;;;;5020875;27;89199;-32
2023/10/16 03:18:44;;;;;;;1.65;1.55;;;7.30;99.90;;;;;;5020020;27;91459;-33
2023/10/16 03:23:42;;;;;;;2.42;1.48;;;7.30;99.90;;;;;;5038778;27;89269;-34
2023/10/16 03:28:47;;;;;;;3.17;1.83;;;7.40;99.90;;;;;;5023213;27;90211;-30
2023/10/16 03:31:14;;;;;;;3.25;1.67;;;7.40;99.90;;;;;;5040395;27;89628;-33
2023/10/16 03:33:39;;;;;;;2.17;1.92;;;7.40;99.90;;;;;;5038592;27;89030;-34
2023/10/16 03:36:05;;;;;;;6.53;2.60;;;7.40;99.90;;;;;;5040636;27;88152;-32
2023/10/16 03:38:37;;;;;;;7.25;1.77;;;7.40;99.90;;;;;;5040130;27;90656;-33
2023/10/16 03:43:58;;;;;;;3.70;2.78;;;7.30;99.90;;;;;;5028757;27;89035;-32
2023/10/16 03:46:26;;;;;;;1.90;1.70;;;7.30;99.90;;;;;;5035748;27;89264;-32
2023/10/16 03:48:54;;;;;;;6.28;2.30;;;7.30;99.90;;;;;;5039724;27;88912;-32
2023/10/16 03:51:21;;;;;;;5.07;2.28;;;7.20;99.90;;;;;;5021688;27;89285;-34
2023/10/16 03:53:47;;;;;;;4.80;2.47;;;7.20;99.90;;;;;;5038850;27;89544;-34
2023/10/16 03:56:13;;;;;;;3.83;2.80;;;7.30;99.90;;;;;;5039497;27;88618;-30
2023/10/16 03:58:43;;;;;;;2.63;2.42;;;7.20;99.90;;;;;;5039473;27;90357;-31
2023/10/16 04:01:10;;;;;;;3.70;2.10;;;7.30;99.90;;;;;;5039999;27;89313;-32
2023/10/16 04:03:56;;;;;;;4.45;2.47;;;7.30;99.90;;;;;;5039640;27;90397;-34
2023/10/16 04:06:24;;;;;;;5.68;2.75;;;7.30;99.90;;;;;;5032379;27;88175;-31
2023/10/16 04:08:51;;;;;;;;;;;7.30;99.90;;;;;;5038623;27;90302;-33
2023/10/16 04:11:18;;;;;;;3.78;2.67;;;7.30;99.90;;;;;;5040938;27;89161;-32
2023/10/16 04:13:49;;;;;;;4.78;3.13;;;7.30;99.90;;;;;;5039081;27;89870;-35
2023/10/16 04:19:35;;;;;;;5.55;3.15;;;7.40;99.90;;;;;;5029546;27;90301;-32
2023/10/16 04:22:07;;;;;;;5.40;3.13;;;7.40;99.90;;;;;;5039378;27;90036;-35
2023/10/16 04:24:40;;;;;;;3.00;2.67;;;7.40;99.90;;;;;;5039296;27;90123;-35
2023/10/16 04:29:45;;;;;;;6.63;3.28;;;7.40;99.90;;;;;;5023829;27;89091;-31
2023/10/16 04:35:03;;;;;;;3.35;2.38;;;7.50;99.90;;;;;;5020103;27;87562;-33
2023/10/16 04:37:36;;;;;;;3.65;3.25;;;7.50;99.90;;;;;;5020163;27;87858;-34
2023/10/16 04:42:50;;;;;;;3.92;3.05;;;7.50;99.90;;;;;;5021447;27;89998;-32
2023/10/16 04:48:48;;;;;;;3.42;3.13;;;7.50;99.90;;;;;;5019900;27;89276;-31
2023/10/16 04:50:49;;;;;;;4.50;2.75;;;7.50;99.90;;;;;;5000049;27;90699;-31
2023/10/16 04:53:21;;;;;;;6.45;3.45;;;7.50;99.90;;;;;;5024061;27;89722;-32
2023/10/16 05:06:27;;;;;;;3.53;3.08;;;7.50;99.90;;;;;;5033852;27;87661;-33
2023/10/16 05:10:11;;;;;;;4.63;3.25;;;7.50;99.90;;;;;;5030069;27;90386;-32
2023/10/16 05:17:58;;;;;;;4.57;2.60;;;7.50;99.90;;;;;;5038140;27;87981;-31
2023/10/16 06:15:20;;;;;;;2.50;2.30;;;7.50;99.90;;;;;;5005272;28;87730;-32
2023/10/16 06:17:46;;;;;;;6.53;3.47;;;7.50;99.90;;;;;;5001813;28;90006;-32
2023/10/16 06:20:19;;;;;;;6.32;3.28;;;7.50;99.90;;;;;;4996487;28;89496;-34
2023/10/16 06:22:51;;;;;;;3.67;2.90;;;7.50;99.90;;;;;;5011162;28;87995;-33
2023/10/16 06:25:19;;;;;;;5.90;3.05;;;7.60;99.90;;;;;;5009021;28;89484;-31
2023/10/16 06:27:46;;;;;;;2.65;2.13;;;7.50;99.90;;;;;;5004224;28;91894;-34
2023/10/16 06:30:18;;;;;;;7.30;3.67;;;7.60;99.90;;;;;;5000085;28;89488;-34
2023/10/16 06:32:44;;;;;;;2.92;2.13;;;7.60;99.90;;;;;;5004002;28;90072;-33
2023/10/16 06:35:14;;;;;;;11.27;3.70;;;7.60;99.90;;;;;;5018411;28;88118;-33
2023/10/16 06:37:41;;;;;;;7.32;2.60;;;7.60;99.90;;;;;;5008131;28;89647;-34
2023/10/16 06:40:17;;;;;;;3.72;2.58;;;7.60;99.90;;;;;;5013724;28;89221;-34
2023/10/16 06:42:45;;;;;;;2.88;2.33;;;7.60;99.90;;;;;;5006700;28;89120;-32
2023/10/16 06:45:19;;;;;;;6.97;2.58;;;7.60;99.90;;;;;;5009575;28;89124;-32
2023/10/16 06:47:49;;;;;;;12.70;2.97;;;7.70;99.90;;;;;;5019077;28;89178;-33
2023/10/16 06:50:34;;;;;;;3.83;3.22;;;7.70;99.90;;;;;;5020689;28;89213;-31
2023/10/16 06:53:00;;;;;;;3.55;2.20;;;7.70;99.90;;;;;;5010111;28;90111;-33
2023/10/16 06:55:26;;;;;;;3.25;2.80;;;7.70;99.90;;;;;;5020245;28;88272;-33
2023/10/16 06:57:51;;;;;;;5.82;2.72;;;7.70;99.90;;;;;;5021012;28;89803;-32
2023/10/16 07:00:27;;;;;;;3.78;2.00;;;7.80;99.90;;;;;;5019331;28;89471;-33
2023/10/16 07:02:54;;;;;;;2.28;2.08;;;7.80;99.90;;;;;;5002395;28;89660;-34
2023/10/16 07:05:24;;;;;;;7.20;2.93;;;7.80;99.90;;;;;;5007318;28;89546;-33
2023/10/16 07:07:52;;;;;;;3.80;2.03;;;7.90;99.90;;;;;;5019419;27;90303;-32
2023/10/16 07:10:17;;;;;;;10.43;3.25;;;7.90;99.90;;;;;;5017685;28;89814;-33
2023/10/16 07:12:58;;;;;;;3.63;2.80;;;8.00;99.90;;;;;;5018732;28;88094;-32
2023/10/16 07:15:26;;;;;;;6.38;2.00;;;8.00;99.90;;;;;;5019538;28;87636;-35
2023/10/16 07:17:51;;;;;;;2.55;2.15;;;8.10;99.90;;;;;;5019696;28;89590;-34
2023/10/16 07:20:30;;;;;;;2.60;1.52;;;8.10;99.90;;;;;;5019600;28;88748;-32
2023/10/16 07:22:59;;;;;;;2.17;1.80;;;8.20;99.90;;;;;;5001669;28;87454;-33
2023/10/16 07:25:47;;;;;;;3.70;2.03;;;8.30;99.90;;;;;;5007092;28;89323;-31
2023/10/16 07:28:15;;;;;;;4.88;1.70;;;8.30;99.90;;;;;;5018787;28;89423;-32
2023/10/16 07:30:42;;;;;;;4.60;2.00;;;8.40;99.90;;;;;;4997507;28;91127;-34
2023/10/16 07:33:17;;;;;;;2.65;2.28;;;8.40;99.90;;;;;;5016975;28;89482;-33
2023/10/16 07:35:46;;;;;;;4.45;2.60;;;8.50;99.90;;;;;;5020052;28;90131;-30
2023/10/16 07:38:22;;;;;;;1.55;1.25;;;8.50;99.90;;;;;;5019707;28;91690;-32
2023/10/16 07:40:58;;;;;;;1.95;1.40;;;8.60;99.90;;;;;;5018754;28;89961;-33
2023/10/16 07:43:28;;;;;;;2.25;1.77;;;8.60;99.90;;;;;;5020325;28;88449;-32
2023/10/16 07:48:44;;;;;;;2.95;1.70;;;8.70;99.90;;;;;;4998926;28;90403;-32
2023/10/16 07:51:15;;;;;;;2.63;2.17;;;8.70;99.90;;;;;;4999392;28;90174;-32
2023/10/16 07:53:41;;;;;;;3.47;1.77;;;8.80;99.90;;;;;;4999546;28;88489;-32
2023/10/16 07:58:54;;;;;;;4.07;1.90;;;8.90;99.90;;;;;;5003354;28;90115;-30
2023/10/16 08:01:36;;;;;;;2.30;1.30;;;8.90;99.90;;;;;;5020046;28;89645;-33
2023/10/16 08:06:56;;;;;;;1.40;1.30;;;9.00;99.90;;;;;;5015970;28;88343;-31
2023/10/16 08:11:57;;;;;;;3.92;1.33;;;9.20;99.90;;;;;;5016841;28;88660;-32
2023/10/16 08:14:28;;;;;;;1.73;1.55;;;9.20;99.90;;;;;;5003655;28;88213;-34
2023/10/16 08:17:06;;;;;;;5.25;2.08;;;9.40;99.90;;;;;;5016031;28;90183;-30
2023/10/16 08:19:34;;;;;;;7.95;2.28;;;9.50;99.90;;;;;;5009508;28;90059;-33
2023/10/16 08:22:02;;;;;;;3.47;2.08;;;9.60;99.90;;;;;;5009760;28;90062;-32
2023/10/16 08:24:29;;;;;;;4.00;2.20;;;9.70;99.90;;;;;;5013496;27;89726;-33
2023/10/16 08:27:08;;;;;;;2.95;2.50;;;9.80;99.90;;;;;;5007445;28;89967;-31
2023/10/16 08:29:51;;;;;;;2.35;1.38;;;9.90;99.90;;;;;;4992627;28;90502;-33
2023/10/16 08:35:09;;;;;;;2.05;1.83;;;10.10;99.90;;;;;;5007458;28;87543;-33
2023/10/16 08:37:34;;;;;;;4.35;1.33;;;10.20;99.90;;;;;;5012028;28;89780;-32
2023/10/16 08:40:00;;;;;;;2.70;2.30;;;10.30;99.90;;;;;;5022088;28;90100;-32
2023/10/16 08:42:25;;;;;;;3.58;1.17;;;10.40;99.90;;;;;;5013207;28;89599;-33
2023/10/16 08:44:51;;;;;;;5.28;2.40;;;10.50;99.90;;;;;;5013039;28;88413;-32
2023/10/16 08:47:24;;;;;;;5.97;2.33;;;10.60;99.90;;;;;;5011124;27;89434;-31
2023/10/16 08:49:54;;;;;;;2.38;1.48;;;10.70;99.90;;;;;;5012096;28;89939;-33
2023/10/16 08:52:21;;;;;;;1.38;1.08;;;10.70;99.90;;;;;;5012593;28;89471;-31
2023/10/16 08:57:27;;;;;;;1.02;0.90;;;10.90;99.90;;;;;;5014358;28;88221;-33
2023/10/16 08:59:57;;;;;;;2.70;2.25;;;11.00;99.90;;;;;;5016261;28;89741;-33
2023/10/16 09:02:25;;;;;;;1.48;0.90;;;11.10;99.90;;;;;;5008604;28;90226;-32
2023/10/16 09:04:55;;;;;;;2.20;1.52;;;11.20;99.90;;;;;;4991444;28;87706;-32
2023/10/16 09:07:23;;;;;;;4.07;1.13;;;11.20;99.90;;;;;;5013116;28;89757;-32
2023/10/16 09:09:49;;;;;;;1.50;1.17;;;11.20;99.90;;;;;;5017355;28;88997;-33
2023/10/16 09:12:24;;;;;;;5.47;1.00;;;11.30;99.90;;;;;;5021439;28;88379;-34
2023/10/16 09:14:52;;;;;;;1.52;1.10;;;11.30;99.90;;;;;;5009458;28;89954;-32
2023/10/16 09:17:27;;;;;;;1.77;1.42;;;11.40;99.90;;;;;;5022291;28;88804;-33
2023/10/16 09:19:53;;;;;;;2.03;1.38;;;11.40;99.90;;;;;;5021058;28;89887;-35
2023/10/16 09:22:26;;;;;;;1.08;0.98;;;11.40;99.90;;;;;;5021964;28;89689;-34
2023/10/16 09:24:52;;;;;;;1.45;0.90;;;11.40;99.90;;;;;;4994361;28;90027;-35
2023/10/16 09:27:22;;;;;;;4.90;1.42;;;11.40;99.90;;;;;;5017267;28;88214;-33
2023/10/16 09:29:53;;;;;;;3.00;1.55;;;11.30;99.90;;;;;;5010142;28;88755;-33
2023/10/16 09:32:26;;;;;;;3.72;1.60;;;11.40;99.90;;;;;;4998577;28;89689;-32
2023/10/16 09:35:05;;;;;;;2.20;1.25;;;11.40;99.90;;;;;;5005062;28;88724;-32
2023/10/16 09:37:34;;;;;;;7.95;2.25;;;11.30;99.90;;;;;;5001865;28;89141;-31
2023/10/16 09:40:35;;;;;;;10.93;2.45;;;11.30;99.90;;;;;;5001876;28;89574;-32
2023/10/16 09:43:13;;;;;;;6.20;1.85;;;11.30;99.90;;;;;;5014186;28;89170;-34
2023/10/16 09:45:39;;;;;;;2.78;1.30;;;11.20;99.90;;;;;;5002893;28;89279;-33
2023/10/16 09:48:08;;;;;;;2.88;0.90;;;11.30;99.90;;;;;;5015982;28;89194;-31
2023/10/16 09:50:36;;;;;;;14.27;2.65;;;11.30;99.90;;;;;;5014040;28;90633;-31
2023/10/16 09:53:02;;;;;;;7.80;1.77;;;11.30;99.90;;;;;;5016852;28;88564;-34
2023/10/16 09:55:38;;;;;;;2.40;1.63;;;11.40;99.90;;;;;;5015313;28;89597;-34
2023/10/16 09:58:06;;;;;;;3.22;1.77;;;11.40;99.90;;;;;;5016199;28;90006;-33
2023/10/16 10:00:32;;;;;;;3.50;1.60;;;11.40;99.90;;;;;;5015180;28;90114;-34
2023/10/16 10:03:11;;;;;;;1.90;1.20;;;11.50;99.90;;;;;;5014613;28;89607;-31
2023/10/16 10:05:48;;;;;;;9.23;1.52;;;11.60;99.90;;;;;;5006666;28;89305;-33
2023/10/16 10:08:52;;;;;;;2.17;1.20;;;11.70;99.90;;;;;;5015728;28;89217;-32
2023/10/16 10:11:38;;;;;;;2.08;0.93;;;11.70;99.90;;;;;;5015928;28;91075;-34
2023/10/16 10:16:56;;;;;;;2.92;0.85;;;11.70;99.90;;;;;;5017631;28;87995;-34
2023/10/16 10:19:39;;;;;;;1.83;1.52;;;11.80;99.90;;;;;;5018293;28;89656;-34
2023/10/16 10:22:17;;;;;;;1.55;0.70;;;11.90;99.90;;;;;;5016994;28;90717;-33
2023/10/16 10:25:08;;;;;;;5.28;1.45;;;11.90;99.90;;;;;;5016656;28;89866;-34
2023/10/16 10:27:41;;;;;;;0.70;0.68;;;12.00;99.90;;;;;;5017784;28;88536;-34
2023/10/16 10:30:17;;;;;;;1.33;1.00;;;12.10;99.90;;;;;;5012391;28;91147;-35
2023/10/16 10:32:53;;;;;;;3.00;1.77;;;12.20;99.90;;;;;;5018091;28;91361;-33
2023/10/16 10:35:29;;;;;;;3.25;2.13;;;12.20;99.90;;;;;;5017441;28;89577;-33
2023/10/16 10:38:17;;;;;;;5.20;1.58;;;12.20;99.90;;;;;;5017700;28;88356;-31
2023/10/16 10:41:12;;;;;;;1.00;1.00;;;12.30;99.90;;;;;;5018980;28;88660;-30
2023/10/16 10:43:46;;;;;;;5.30;1.92;;;12.30;99.90;;;;;;5009759;28;89175;-34
2023/10/16 10:46:34;;;;;;;11.40;1.85;;;12.30;99.90;;;;;;5016705;28;90255;-34
2023/10/16 10:49:01;;;;;;;2.90;1.35;;;12.30;99.90;;;;;;5017045;28;88204;-35
2023/10/16 10:51:35;;;;;;;3.30;0.80;;;12.30;99.90;;;;;;5018978;28;90014;-32
2023/10/16 10:54:06;;;;;;;3.65;1.10;;;12.30;99.90;;;;;;5016577;28;89720;-34
2023/10/16 10:56:48;;;;;;;1.15;0.70;;;12.30;99.90;;;;;;5009066;28;89965;-34
2023/10/16 10:59:40;;;;;;;0.77;0.77;;;12.30;99.90;;;;;;5014249;28;89741;-32
2023/10/16 11:02:22;;;;;;;5.93;1.08;;;12.30;99.90;;;;;;5017421;28;88364;-31
2023/10/16 11:04:58;;;;;;;2.92;1.25;;;12.20;99.90;;;;;;5018288;28;90474;-33
2023/10/16 11:07:39;;;;;;;3.15;1.10;;;12.20;99.90;;;;;;5013774;28;89407;-31
2023/10/16 11:10:06;;;;;;;7.85;1.20;;;12.30;99.90;;;;;;5017823;28;90004;-30
2023/10/16 11:12:32;;;;;;;5.93;1.42;;;12.30;99.90;;;;;;5018374;28;89436;-33
2023/10/16 11:15:01;;;;;;;2.42;0.80;;;12.30;99.90;;;;;;5017476;28;90667;-32
2023/10/16 11:17:46;;;;;;;1.80;0.80;;;12.30;99.90;;;;;;5018179;28;89840;-33
2023/10/16 11:22:46;;;;;;;;;;;12.30;99.90;;;;;;5011464;28;87701;-33
2023/10/16 11:25:13;;;;;;;2.10;0.73;;;12.40;99.90;;;;;;5016941;28;90517;-32
2023/10/16 11:27:42;;;;;;;2.27;1.13;;;12.50;99.90;;;;;;4997586;28;89665;-31
2023/10/16 11:30:12;;;;;;;10.57;1.30;;;12.60;99.90;;;;;;5017077;28;90068;-34
2023/10/16 11:32:42;;;;;;;4.82;1.13;;;12.70;99.90;;;;;;5018044;28;87683;-34
2023/10/16 11:35:15;;;;;;;8.63;1.25;;;12.70;99.90;;;;;;5017715;28;91860;-33
2023/10/16 11:37:52;;;;;;;6.35;1.05;;;12.70;99.90;;;;;;5015987;28;90197;-33
2023/10/16 11:40:18;;;;;;;4.03;1.30;;;12.70;99.90;;;;;;5017966;28;89941;-33
2023/10/16 11:42:47;;;;;;;1.83;0.90;;;12.70;99.90;;;;;;5017077;28;88886;-32
2023/10/16 11:45:24;;;;;;;3.00;1.50;;;12.70;99.90;;;;;;5016857;28;89098;-33
2023/10/16 11:50:39;;;;;;;2.28;1.08;;;12.80;99.90;;;;;;5016998;28;90623;-36
2023/10/16 11:53:08;;;;;;;0.85;0.75;;;12.80;99.90;;;;;;5016985;28;89466;-34
2023/10/16 11:55:37;;;;;;;2.10;1.05;;;12.80;99.90;;;;;;5016712;28;91253;-34
2023/10/16 11:58:06;;;;;;;4.57;1.38;;;12.90;99.90;;;;;;5017160;28;89466;-33
2023/10/16 12:00:35;;;;;;;21.75;2.17;;;12.90;99.90;;;;;;5015633;28;88498;-35
2023/10/16 12:03:07;;;;;;;0.82;0.80;;;13.00;99.90;;;;;;5017117;28;89804;-31
2023/10/16 12:05:36;;;;;;;9.38;1.90;;;13.00;99.90;;;;;;5016531;28;90343;-38
2023/10/16 12:08:02;;;;;;;2.90;0.73;;;13.00;99.90;;;;;;5016590;28;90241;-34
2023/10/16 12:10:31;;;;;;;4.72;1.27;;;13.00;99.90;;;;;;5017105;28;88256;-33
2023/10/16 12:12:58;;;;;;;5.32;1.55;;;13.00;99.90;;;;;;5017667;28;87935;-32
2023/10/16 12:15:25;;;;;;;1.90;1.42;;;13.00;99.90;;;;;;5013877;28;90471;-34
2023/10/16 12:17:53;;;;;;;4.32;1.67;;;13.10;99.90;;;;;;5016746;28;89275;-31
2023/10/16 12:20:21;;;;;;;4.20;0.73;;;13.00;99.90;;;;;;5017590;28;88116;-31
2023/10/16 12:22:48;;;;;;;1.48;1.27;;;13.00;99.90;;;;;;5016684;28;88629;-34
2023/10/16 12:25:13;;;;;;;1.00;0.90;;;13.00;99.90;;;;;;5015462;28;90850;-34
2023/10/16 12:27:40;;;;;;;3.90;1.02;;;13.00;99.90;;;;;;5016001;28;89580;-35
2023/10/16 12:30:12;;;;;;;1.88;0.95;;;13.00;99.90;;;;;;5008961;28;89608;-35
2023/10/16 12:32:38;;;;;;;3.78;1.73;;;13.10;99.90;;;;;;5016669;28;89125;-35
2023/10/16 12:35:08;;;;;;;2.55;1.30;;;13.10;99.90;;;;;;5016521;28;90304;-32
2023/10/16 12:37:34;;;;;;;6.20;1.33;;;13.10;99.90;;;;;;5015630;28;89635;-32
2023/10/16 12:40:05;;;;;;;1.25;1.17;;;13.10;99.90;;;;;;5016159;28;88987;-33
2023/10/16 12:42:31;;;;;;;2.65;1.20;;;13.10;99.90;;;;;;4997506;28;89197;-33
2023/10/16 12:44:56;;;;;;;2.22;1.20;;;13.00;99.90;;;;;;5016201;28;90175;-35
2023/10/16 12:47:22;;;;;;;4.50;1.30;;;12.90;99.90;;;;;;5016532;28;90041;-34
2023/10/16 12:49:47;;;;;;;3.10;1.15;;;12.90;99.90;;;;;;5016551;28;88753;-34
2023/10/16 12:52:13;;;;;;;2.80;1.30;;;13.00;99.90;;;;;;5016454;28;88842;-33
2023/10/16 12:54:43;;;;;;;2.58;1.05;;;13.00;99.90;;;;;;5015980;28;91072;-31
2023/10/16 12:57:10;;;;;;;1.13;0.93;;;12.90;99.90;;;;;;5016426;28;89764;-33
2023/10/16 12:59:36;;;;;;;2.00;1.13;;;13.00;99.90;;;;;;5015323;28;89743;-34
2023/10/16 13:02:04;;;;;;;6.68;0.90;;;13.00;99.90;;;;;;5016382;28;88706;-33
2023/10/16 13:04:33;;;;;;;3.20;1.30;;;13.00;99.90;;;;;;5016291;28;88791;-34
2023/10/16 13:07:00;;;;;;;1.58;1.00;;;13.00;99.90;;;;;;5015018;28;89985;-32
2023/10/16 13:09:25;;;;;;;1.60;1.42;;;12.90;99.90;;;;;;5016861;28;88524;-33
2023/10/16 13:11:51;;;;;;;4.30;0.95;;;12.90;99.90;;;;;;5017676;27;89001;-30
2023/10/16 13:14:17;;;;;;;2.53;1.02;;;13.00;99.90;;;;;;5018484;28;89701;-32
2023/10/16 13:16:53;;;;;;;2.67;1.58;;;13.00;99.90;;;;;;5019873;28;90089;-32
2023/10/16 13:19:19;;;;;;;5.90;1.05;;;13.00;99.90;;;;;;5019911;28;88462;-34
2023/10/16 13:21:46;;;;;;;2.03;1.02;;;13.00;99.90;;;;;;5018687;28;88980;-34
2023/10/16 13:24:16;;;;;;;2.47;1.10;;;13.00;99.90;;;;;;5019787;28;90248;-32
2023/10/16 13:26:42;;;;;;;7.78;1.25;;;13.00;99.90;;;;;;5019557;28;90628;-32
2023/10/16 13:29:10;;;;;;;1.85;1.08;;;13.00;99.90;;;;;;5019103;28;88397;-35
2023/10/16 13:31:40;;;;;;;1.10;0.65;;;12.90;99.90;;;;;;5018388;28;88487;-34
2023/10/16 13:34:10;;;;;;;5.43;2.55;;;12.90;99.90;;;;;;5020099;28;90360;-32
2023/10/16 13:36:37;;;;;;;7.32;1.50;;;12.90;99.90;;;;;;5006893;28;91320;-33
2023/10/16 13:39:10;;;;;;;1.70;0.93;;;12.90;99.90;;;;;;5018694;28;88990;-33
2023/10/16 13:41:50;;;;;;;2.15;1.20;;;12.90;99.90;;;;;;5019112;28;88663;-32
2023/10/16 13:44:17;;;;;;;2.05;1.20;;;12.90;99.90;;;;;;5017919;28;91664;-34
2023/10/16 13:46:42;;;;;;;3.22;1.65;;;12.90;99.90;;;;;;5000436;28;89700;-33
2023/10/16 13:49:14;;;;;;;0.75;0.75;;;12.90;99.90;;;;;;5015459;28;89304;-33
2023/10/16 13:51:42;;;;;;;5.07;1.25;;;12.90;99.90;;;;;;4999396;28;88074;-34
2023/10/16 13:54:12;;;;;;;3.90;1.15;;;12.80;99.90;;;;;;4999964;28;90227;-32
2023/10/16 13:56:41;;;;;;;4.65;1.23;;;12.90;99.90;;;;;;4999874;28;90267;-31
2023/10/16 13:59:08;;;;;;;1.05;0.93;;;12.80;99.90;;;;;;5005288;28;88294;-33
2023/10/16 14:01:45;;;;;;;4.07;1.65;;;12.80;99.90;;;;;;5019726;28;88139;-33
2023/10/16 14:04:15;;;;;;;4.32;1.38;;;12.70;99.90;;;;;;5006371;28;89865;-32
2023/10/16 14:06:47;;;;;;;1.17;1.02;;;12.80;99.90;;;;;;5017140;28;91347;-33
2023/10/16 14:09:28;;;;;;;3.67;1.50;;;12.70;99.90;;;;;;5019951;28;87824;-34
2023/10/16 14:11:58;;;;;;;6.25;1.58;;;12.70;99.90;;;;;;5016857;28;88481;-33
2023/10/16 14:14:26;;;;;;;6.97;1.05;;;12.70;99.90;;;;;;5007332;28;90478;-34
2023/10/16 14:17:16;;;;;;;5.22;1.35;;;12.70;99.90;;;;;;5018156;28;89098;-32
2023/10/16 14:19:47;;;;;;;1.02;0.82;;;12.70;99.90;;;;;;5018362;28;89048;-33
2023/10/16 14:22:15;;;;;;;7.72;1.83;;;12.70;99.90;;;;;;4985677;28;88485;-33
2023/10/16 14:24:42;;;;;;;4.15;1.73;;;12.70;99.90;;;;;;5012046;27;90743;-34
2023/10/16 14:27:08;;;;;;;6.43;1.30;;;12.70;99.90;;;;;;5018350;28;90148;-33
2023/10/16 14:29:38;;;;;;;9.70;1.58;;;12.70;99.90;;;;;;5017669;28;88963;-33
2023/10/16 14:32:04;;;;;;;2.72;1.33;;;12.70;99.90;;;;;;5018307;28;88441;-34
2023/10/16 14:34:30;;;;;;;5.85;1.90;;;12.70;99.90;;;;;;5018035;28;90108;-31
2023/10/16 14:36:58;;;;;;;8.30;2.75;;;12.70;99.90;;;;;;5009034;28;91524;-33
2023/10/16 14:39:27;;;;;;;1.60;1.10;;;12.70;99.90;;;;;;5010320;28;90824;-33
2023/10/16 14:41:54;;;;;;;3.83;0.95;;;12.70;99.90;;;;;;5013837;28;90263;-31
2023/10/16 14:44:19;;;;;;;4.03;1.90;;;12.60;99.90;;;;;;5015447;28;89689;-34
2023/10/16 14:46:45;;;;;;;3.55;1.40;;;12.60;99.90;;;;;;5007321;28;90084;-33
2023/10/16 14:49:11;;;;;;;6.90;1.95;;;12.60;99.90;;;;;;4997759;28;89437;-34
2023/10/16 14:51:38;;;;;;;6.95;2.25;;;12.60;99.90;;;;;;5009581;28;88454;-33
2023/10/16 14:54:12;;;;;;;3.40;1.30;;;12.60;99.90;;;;;;5011923;28;90180;-33
2023/10/16 14:56:39;;;;;;;4.75;1.35;;;12.50;99.90;;;;;;5014410;28;89453;-34
2023/10/16 14:59:08;;;;;;;3.72;1.63;;;12.60;99.90;;;;;;5014964;28;89942;-32
2023/10/16 15:01:36;;;;;;;4.22;1.67;;;12.50;99.90;;;;;;5016348;27;90135;-32
2023/10/16 15:04:03;;;;;;;4.55;1.40;;;12.50;99.90;;;;;;5007157;28;90129;-34
2023/10/16 15:06:29;;;;;;;4.37;1.43;;;12.50;99.90;;;;;;5013236;28;89836;-33
2023/10/16 15:08:58;;;;;;;11.40;1.63;;;12.50;99.90;;;;;;5015802;28;89814;-34
2023/10/16 15:11:28;;;;;;;3.67;2.05;;;12.40;99.90;;;;;;5015857;28;90370;-30
2023/10/16 15:13:55;;;;;;;6.13;1.95;;;12.40;99.90;;;;;;4999330;28;90234;-32